sensor_id;sensor_type;location;lat;lon;timestamp;P1;durP1;ratioP1;P2;durP2;ratioP2
10481;SDS011;5288;42.334;23.876;2022-09-09T00:00:23;14.37;;;13.10;;
10481;SDS011;5288;42.334;23.876;2022-09-09T00:02:55;14.10;;;12.90;;
10481;SDS011;5288;42.334;23.876;2022-09-09T00:05:30;14.57;;;13.23;;
10481;SDS011;5288;42.334;23.876;2022-09-09T00:08:03;14.23;;;12.80;;
10481;SDS011;5288;42.334;23.876;2022-09-09T00:10:34;14.27;;;12.97;;
10481;SDS011;5288;42.334;23.876;2022-09-09T00:13:10;14.67;;;13.37;;
10481;SDS011;5288;42.334;23.876;2022-09-09T00:15:45;15.17;;;13.50;;
10481;SDS011;5288;42.334;23.876;2022-09-09T00:18:21;14.03;;;12.73;;
10481;SDS011;5288;42.334;23.876;2022-09-09T00:20:55;14.67;;;13.37;;
10481;SDS011;5288;42.334;23.876;2022-09-09T00:23:28;14.30;;;12.73;;
10481;SDS011;5288;42.334;23.876;2022-09-09T00:26:01;15.40;;;13.13;;
10481;SDS011;5288;42.334;23.876;2022-09-09T00:28:36;14.03;;;12.73;;
10481;SDS011;5288;42.334;23.876;2022-09-09T00:31:11;13.40;;;12.20;;
10481;SDS011;5288;42.334;23.876;2022-09-09T00:33:39;13.40;;;12.10;;
10481;SDS011;5288;42.334;23.876;2022-09-09T00:36:09;14.60;;;13.20;;
10481;SDS011;5288;42.334;23.876;2022-09-09T00:38:42;19.00;;;13.37;;
10481;SDS011;5288;42.334;23.876;2022-09-09T00:41:17;13.57;;;12.30;;
10481;SDS011;5288;42.334;23.876;2022-09-09T00:43:51;14.27;;;12.87;;
10481;SDS011;5288;42.334;23.876;2022-09-09T00:46:32;14.73;;;13.23;;
10481;SDS011;5288;42.334;23.876;2022-09-09T00:49:23;14.63;;;13.23;;
10481;SDS011;5288;42.334;23.876;2022-09-09T00:52:03;13.83;;;12.43;;
10481;SDS011;5288;42.334;23.876;2022-09-09T00:54:45;14.43;;;12.90;;
10481;SDS011;5288;42.334;23.876;2022-09-09T00:57:25;14.30;;;12.53;;
10481;SDS011;5288;42.334;23.876;2022-09-09T01:00:15;14.67;;;13.37;;
10481;SDS011;5288;42.334;23.876;2022-09-09T01:02:46;13.47;;;12.27;;
10481;SDS011;5288;42.334;23.876;2022-09-09T01:05:29;15.50;;;12.93;;
10481;SDS011;5288;42.334;23.876;2022-09-09T01:08:03;15.27;;;13.87;;
10481;SDS011;5288;42.334;23.876;2022-09-09T01:10:39;15.27;;;13.73;;
10481;SDS011;5288;42.334;23.876;2022-09-09T01:13:16;15.03;;;13.63;;
10481;SDS011;5288;42.334;23.876;2022-09-09T01:15:50;14.83;;;13.43;;
10481;SDS011;5288;42.334;23.876;2022-09-09T01:18:19;15.07;;;13.70;;
10481;SDS011;5288;42.334;23.876;2022-09-09T01:20:49;14.90;;;13.37;;
10481;SDS011;5288;42.334;23.876;2022-09-09T01:23:33;14.13;;;12.73;;
10481;SDS011;5288;42.334;23.876;2022-09-09T01:26:11;13.20;;;12.00;;
10481;SDS011;5288;42.334;23.876;2022-09-09T01:28:42;14.63;;;13.30;;
10481;SDS011;5288;42.334;23.876;2022-09-09T01:31:14;15.63;;;14.03;;
10481;SDS011;5288;42.334;23.876;2022-09-09T01:33:44;14.10;;;12.67;;
10481;SDS011;5288;42.334;23.876;2022-09-09T01:36:12;15.37;;;13.87;;
10481;SDS011;5288;42.334;23.876;2022-09-09T01:38:44;15.10;;;13.60;;
10481;SDS011;5288;42.334;23.876;2022-09-09T01:41:14;14.10;;;12.60;;
10481;SDS011;5288;42.334;23.876;2022-09-09T01:43:42;14.77;;;13.37;;
10481;SDS011;5288;42.334;23.876;2022-09-09T01:46:10;15.90;;;14.20;;
10481;SDS011;5288;42.334;23.876;2022-09-09T01:48:40;14.30;;;12.73;;
10481;SDS011;5288;42.334;23.876;2022-09-09T01:51:10;14.60;;;12.40;;
10481;SDS011;5288;42.334;23.876;2022-09-09T01:53:38;12.93;;;11.83;;
10481;SDS011;5288;42.334;23.876;2022-09-09T01:56:11;14.13;;;12.80;;
10481;SDS011;5288;42.334;23.876;2022-09-09T01:58:53;15.07;;;13.63;;
10481;SDS011;5288;42.334;23.876;2022-09-09T02:01:34;15.10;;;13.63;;
10481;SDS011;5288;42.334;23.876;2022-09-09T02:04:13;15.67;;;12.80;;
10481;SDS011;5288;42.334;23.876;2022-09-09T02:06:48;13.53;;;12.20;;
10481;SDS011;5288;42.334;23.876;2022-09-09T02:09:23;15.53;;;13.87;;
10481;SDS011;5288;42.334;23.876;2022-09-09T02:11:54;15.13;;;13.47;;
10481;SDS011;5288;42.334;23.876;2022-09-09T02:14:27;14.80;;;13.50;;
10481;SDS011;5288;42.334;23.876;2022-09-09T02:16:57;14.07;;;12.83;;
10481;SDS011;5288;42.334;23.876;2022-09-09T02:19:29;13.37;;;12.17;;
10481;SDS011;5288;42.334;23.876;2022-09-09T02:22:01;13.20;;;12.00;;
10481;SDS011;5288;42.334;23.876;2022-09-09T02:24:29;13.10;;;11.90;;
10481;SDS011;5288;42.334;23.876;2022-09-09T02:27:02;14.73;;;13.23;;
10481;SDS011;5288;42.334;23.876;2022-09-09T02:29:34;13.20;;;12.00;;
10481;SDS011;5288;42.334;23.876;2022-09-09T02:32:06;16.77;;;12.77;;
10481;SDS011;5288;42.334;23.876;2022-09-09T02:34:36;14.83;;;13.37;;
10481;SDS011;5288;42.334;23.876;2022-09-09T02:37:07;13.43;;;12.13;;
10481;SDS011;5288;42.334;23.876;2022-09-09T02:39:35;13.53;;;12.27;;
10481;SDS011;5288;42.334;23.876;2022-09-09T02:42:04;16.37;;;13.00;;
10481;SDS011;5288;42.334;23.876;2022-09-09T02:44:32;13.60;;;12.27;;
10481;SDS011;5288;42.334;23.876;2022-09-09T02:49:52;12.83;;;11.60;;
10481;SDS011;5288;42.334;23.876;2022-09-09T02:52:31;14.50;;;12.40;;
10481;SDS011;5288;42.334;23.876;2022-09-09T02:55:06;13.63;;;12.53;;
10481;SDS011;5288;42.334;23.876;2022-09-09T02:57:39;13.13;;;11.83;;
10481;SDS011;5288;42.334;23.876;2022-09-09T03:00:11;13.43;;;12.13;;
10481;SDS011;5288;42.334;23.876;2022-09-09T03:02:38;13.87;;;12.53;;
10481;SDS011;5288;42.334;23.876;2022-09-09T03:05:07;13.73;;;12.33;;
10481;SDS011;5288;42.334;23.876;2022-09-09T03:07:34;14.13;;;12.53;;
10481;SDS011;5288;42.334;23.876;2022-09-09T03:10:02;14.00;;;12.70;;
10481;SDS011;5288;42.334;23.876;2022-09-09T03:12:29;13.50;;;12.27;;
10481;SDS011;5288;42.334;23.876;2022-09-09T03:14:59;13.80;;;12.50;;
10481;SDS011;5288;42.334;23.876;2022-09-09T03:17:26;13.27;;;11.97;;
10481;SDS011;5288;42.334;23.876;2022-09-09T03:19:53;14.07;;;12.57;;
10481;SDS011;5288;42.334;23.876;2022-09-09T03:22:23;13.73;;;12.43;;
10481;SDS011;5288;42.334;23.876;2022-09-09T03:24:51;13.40;;;12.00;;
10481;SDS011;5288;42.334;23.876;2022-09-09T03:27:18;13.90;;;12.50;;
10481;SDS011;5288;42.334;23.876;2022-09-09T03:29:45;13.20;;;12.00;;
10481;SDS011;5288;42.334;23.876;2022-09-09T03:32:17;12.77;;;11.67;;
10481;SDS011;5288;42.334;23.876;2022-09-09T03:34:47;13.20;;;12.00;;
10481;SDS011;5288;42.334;23.876;2022-09-09T03:37:14;13.90;;;12.60;;
10481;SDS011;5288;42.334;23.876;2022-09-09T03:39:42;12.80;;;11.60;;
10481;SDS011;5288;42.334;23.876;2022-09-09T03:42:11;12.60;;;11.50;;
10481;SDS011;5288;42.334;23.876;2022-09-09T03:44:43;16.23;;;11.93;;
10481;SDS011;5288;42.334;23.876;2022-09-09T03:47:15;12.20;;;10.93;;
10481;SDS011;5288;42.334;23.876;2022-09-09T03:49:43;12.87;;;10.70;;
10481;SDS011;5288;42.334;23.876;2022-09-09T03:52:11;14.90;;;11.07;;
10481;SDS011;5288;42.334;23.876;2022-09-09T03:54:38;13.53;;;12.13;;
10481;SDS011;5288;42.334;23.876;2022-09-09T03:57:07;13.43;;;12.13;;
10481;SDS011;5288;42.334;23.876;2022-09-09T03:59:35;12.57;;;11.37;;
10481;SDS011;5288;42.334;23.876;2022-09-09T04:02:02;12.53;;;11.37;;
10481;SDS011;5288;42.334;23.876;2022-09-09T04:04:29;11.93;;;10.83;;
10481;SDS011;5288;42.334;23.876;2022-09-09T04:06:58;13.07;;;11.27;;
10481;SDS011;5288;42.334;23.876;2022-09-09T04:09:25;12.93;;;11.73;;
10481;SDS011;5288;42.334;23.876;2022-09-09T04:11:52;16.20;;;12.63;;
10481;SDS011;5288;42.334;23.876;2022-09-09T04:14:20;13.80;;;12.37;;
10481;SDS011;5288;42.334;23.876;2022-09-09T04:16:47;12.77;;;11.47;;
10481;SDS011;5288;42.334;23.876;2022-09-09T04:19:14;14.77;;;11.97;;
10481;SDS011;5288;42.334;23.876;2022-09-09T04:21:41;17.47;;;11.23;;
10481;SDS011;5288;42.334;23.876;2022-09-09T04:24:10;14.07;;;11.73;;
10481;SDS011;5288;42.334;23.876;2022-09-09T04:26:37;13.57;;;12.37;;
10481;SDS011;5288;42.334;23.876;2022-09-09T04:29:04;13.63;;;12.23;;
10481;SDS011;5288;42.334;23.876;2022-09-09T04:31:32;12.97;;;11.60;;
10481;SDS011;5288;42.334;23.876;2022-09-09T04:33:59;13.47;;;11.77;;
10481;SDS011;5288;42.334;23.876;2022-09-09T04:36:30;13.57;;;12.17;;
10481;SDS011;5288;42.334;23.876;2022-09-09T04:38:58;13.37;;;11.50;;
10481;SDS011;5288;42.334;23.876;2022-09-09T04:41:26;12.93;;;11.83;;
10481;SDS011;5288;42.334;23.876;2022-09-09T04:43:53;12.07;;;10.93;;
10481;SDS011;5288;42.334;23.876;2022-09-09T04:46:21;14.13;;;11.63;;
10481;SDS011;5288;42.334;23.876;2022-09-09T04:48:51;12.60;;;10.90;;
10481;SDS011;5288;42.334;23.876;2022-09-09T04:51:19;11.97;;;10.87;;
10481;SDS011;5288;42.334;23.876;2022-09-09T04:53:46;18.40;;;13.03;;
10481;SDS011;5288;42.334;23.876;2022-09-09T04:56:16;12.60;;;11.33;;
10481;SDS011;5288;42.334;23.876;2022-09-09T04:58:45;18.33;;;12.37;;
10481;SDS011;5288;42.334;23.876;2022-09-09T05:01:13;13.00;;;11.80;;
10481;SDS011;5288;42.334;23.876;2022-09-09T05:03:42;13.47;;;12.13;;
10481;SDS011;5288;42.334;23.876;2022-09-09T05:06:11;12.73;;;11.40;;
10481;SDS011;5288;42.334;23.876;2022-09-09T05:08:41;12.80;;;10.80;;
10481;SDS011;5288;42.334;23.876;2022-09-09T05:11:14;12.67;;;11.47;;
10481;SDS011;5288;42.334;23.876;2022-09-09T05:13:43;12.90;;;11.63;;
10481;SDS011;5288;42.334;23.876;2022-09-09T05:16:12;11.97;;;10.87;;
10481;SDS011;5288;42.334;23.876;2022-09-09T05:18:40;13.90;;;12.60;;
10481;SDS011;5288;42.334;23.876;2022-09-09T05:21:08;16.53;;;11.23;;
10481;SDS011;5288;42.334;23.876;2022-09-09T05:23:36;12.40;;;11.20;;
10481;SDS011;5288;42.334;23.876;2022-09-09T05:26:05;16.57;;;10.73;;
10481;SDS011;5288;42.334;23.876;2022-09-09T05:28:35;14.23;;;11.83;;
10481;SDS011;5288;42.334;23.876;2022-09-09T05:31:04;13.23;;;11.93;;
10481;SDS011;5288;42.334;23.876;2022-09-09T05:33:33;15.33;;;11.30;;
10481;SDS011;5288;42.334;23.876;2022-09-09T05:36:03;14.03;;;10.70;;
10481;SDS011;5288;42.334;23.876;2022-09-09T05:38:31;10.83;;;9.83;;
10481;SDS011;5288;42.334;23.876;2022-09-09T05:40:59;13.40;;;10.00;;
10481;SDS011;5288;42.334;23.876;2022-09-09T05:43:27;11.70;;;9.67;;
10481;SDS011;5288;42.334;23.876;2022-09-09T05:46:01;11.53;;;10.43;;
10481;SDS011;5288;42.334;23.876;2022-09-09T05:48:31;11.57;;;10.37;;
10481;SDS011;5288;42.334;23.876;2022-09-09T05:51:00;10.57;;;9.67;;
10481;SDS011;5288;42.334;23.876;2022-09-09T05:53:27;11.63;;;10.17;;
10481;SDS011;5288;42.334;23.876;2022-09-09T05:56:01;10.70;;;9.70;;
10481;SDS011;5288;42.334;23.876;2022-09-09T05:58:30;11.60;;;10.40;;
10481;SDS011;5288;42.334;23.876;2022-09-09T06:01:01;11.37;;;10.17;;
10481;SDS011;5288;42.334;23.876;2022-09-09T06:03:31;14.40;;;10.53;;
10481;SDS011;5288;42.334;23.876;2022-09-09T06:05:58;11.50;;;10.50;;
10481;SDS011;5288;42.334;23.876;2022-09-09T06:08:26;11.27;;;10.17;;
10481;SDS011;5288;42.334;23.876;2022-09-09T06:10:53;10.70;;;9.70;;
10481;SDS011;5288;42.334;23.876;2022-09-09T06:13:31;11.83;;;10.40;;
10481;SDS011;5288;42.334;23.876;2022-09-09T06:15:58;13.00;;;10.37;;
10481;SDS011;5288;42.334;23.876;2022-09-09T06:18:26;10.57;;;9.20;;
10481;SDS011;5288;42.334;23.876;2022-09-09T06:20:55;10.63;;;9.70;;
10481;SDS011;5288;42.334;23.876;2022-09-09T06:23:24;10.97;;;9.87;;
10481;SDS011;5288;42.334;23.876;2022-09-09T06:25:51;10.30;;;9.30;;
10481;SDS011;5288;42.334;23.876;2022-09-09T06:28:26;10.80;;;9.40;;
10481;SDS011;5288;42.334;23.876;2022-09-09T06:30:57;9.47;;;8.67;;
10481;SDS011;5288;42.334;23.876;2022-09-09T06:33:24;11.20;;;9.27;;
10481;SDS011;5288;42.334;23.876;2022-09-09T06:35:54;10.17;;;9.10;;
10481;SDS011;5288;42.334;23.876;2022-09-09T06:38:22;10.80;;;9.67;;
10481;SDS011;5288;42.334;23.876;2022-09-09T06:40:51;12.97;;;8.97;;
10481;SDS011;5288;42.334;23.876;2022-09-09T06:43:20;8.97;;;8.13;;
10481;SDS011;5288;42.334;23.876;2022-09-09T06:45:52;12.83;;;7.80;;
10481;SDS011;5288;42.334;23.876;2022-09-09T06:48:20;8.47;;;7.50;;
10481;SDS011;5288;42.334;23.876;2022-09-09T06:50:48;7.53;;;6.83;;
10481;SDS011;5288;42.334;23.876;2022-09-09T06:53:18;8.13;;;7.33;;
10481;SDS011;5288;42.334;23.876;2022-09-09T06:55:48;10.87;;;6.63;;
10481;SDS011;5288;42.334;23.876;2022-09-09T06:58:22;8.07;;;7.27;;
10481;SDS011;5288;42.334;23.876;2022-09-09T07:00:50;7.60;;;6.30;;
10481;SDS011;5288;42.334;23.876;2022-09-09T07:03:18;6.40;;;5.83;;
10481;SDS011;5288;42.334;23.876;2022-09-09T07:05:53;9.80;;;6.23;;
10481;SDS011;5288;42.334;23.876;2022-09-09T07:08:23;9.33;;;6.10;;
10481;SDS011;5288;42.334;23.876;2022-09-09T07:10:50;6.60;;;5.67;;
10481;SDS011;5288;42.334;23.876;2022-09-09T07:13:19;7.83;;;6.37;;
10481;SDS011;5288;42.334;23.876;2022-09-09T07:15:49;10.57;;;6.27;;
10481;SDS011;5288;42.334;23.876;2022-09-09T07:18:16;6.30;;;5.67;;
10481;SDS011;5288;42.334;23.876;2022-09-09T07:20:47;6.23;;;5.37;;
10481;SDS011;5288;42.334;23.876;2022-09-09T07:23:22;6.70;;;5.50;;
10481;SDS011;5288;42.334;23.876;2022-09-09T07:25:50;5.47;;;4.97;;
10481;SDS011;5288;42.334;23.876;2022-09-09T07:28:18;8.83;;;5.23;;
10481;SDS011;5288;42.334;23.876;2022-09-09T07:30:52;6.20;;;5.10;;
10481;SDS011;5288;42.334;23.876;2022-09-09T07:33:19;5.57;;;4.90;;
10481;SDS011;5288;42.334;23.876;2022-09-09T07:35:46;6.40;;;5.13;;
10481;SDS011;5288;42.334;23.876;2022-09-09T07:38:13;5.40;;;4.87;;
10481;SDS011;5288;42.334;23.876;2022-09-09T07:40:42;10.90;;;5.27;;
10481;SDS011;5288;42.334;23.876;2022-09-09T07:43:10;5.70;;;4.70;;
10481;SDS011;5288;42.334;23.876;2022-09-09T07:45:37;11.80;;;5.07;;
10481;SDS011;5288;42.334;23.876;2022-09-09T07:48:05;5.23;;;4.73;;
10481;SDS011;5288;42.334;23.876;2022-09-09T07:50:32;8.37;;;4.90;;
10481;SDS011;5288;42.334;23.876;2022-09-09T07:53:00;8.13;;;4.70;;
10481;SDS011;5288;42.334;23.876;2022-09-09T07:55:27;6.90;;;4.70;;
10481;SDS011;5288;42.334;23.876;2022-09-09T07:57:56;5.37;;;4.83;;
10481;SDS011;5288;42.334;23.876;2022-09-09T08:00:23;7.00;;;4.60;;
10481;SDS011;5288;42.334;23.876;2022-09-09T08:02:52;5.87;;;4.90;;
10481;SDS011;5288;42.334;23.876;2022-09-09T08:05:20;7.83;;;4.53;;
10481;SDS011;5288;42.334;23.876;2022-09-09T08:07:47;5.07;;;4.57;;
10481;SDS011;5288;42.334;23.876;2022-09-09T08:10:14;4.93;;;4.43;;
10481;SDS011;5288;42.334;23.876;2022-09-09T08:12:43;4.97;;;4.00;;
10481;SDS011;5288;42.334;23.876;2022-09-09T08:15:11;11.10;;;4.47;;
10481;SDS011;5288;42.334;23.876;2022-09-09T08:17:38;9.50;;;4.73;;
10481;SDS011;5288;42.334;23.876;2022-09-09T08:20:05;6.87;;;5.30;;
10481;SDS011;5288;42.334;23.876;2022-09-09T08:22:32;10.37;;;4.73;;
10481;SDS011;5288;42.334;23.876;2022-09-09T08:25:00;6.17;;;5.10;;
10481;SDS011;5288;42.334;23.876;2022-09-09T08:27:27;6.13;;;4.83;;
10481;SDS011;5288;42.334;23.876;2022-09-09T08:29:55;9.53;;;4.70;;
10481;SDS011;5288;42.334;23.876;2022-09-09T08:32:23;6.27;;;4.73;;
10481;SDS011;5288;42.334;23.876;2022-09-09T08:34:51;6.13;;;4.33;;
10481;SDS011;5288;42.334;23.876;2022-09-09T08:37:18;7.43;;;4.10;;
10481;SDS011;5288;42.334;23.876;2022-09-09T08:39:46;7.03;;;4.10;;
10481;SDS011;5288;42.334;23.876;2022-09-09T08:42:34;7.43;;;4.40;;
10481;SDS011;5288;42.334;23.876;2022-09-09T08:45:19;7.93;;;4.23;;
10481;SDS011;5288;42.334;23.876;2022-09-09T08:47:57;4.30;;;3.90;;
10481;SDS011;5288;42.334;23.876;2022-09-09T08:50:37;4.63;;;4.17;;
10481;SDS011;5288;42.334;23.876;2022-09-09T08:53:09;4.67;;;4.27;;
10481;SDS011;5288;42.334;23.876;2022-09-09T08:55:42;3.93;;;3.53;;
10481;SDS011;5288;42.334;23.876;2022-09-09T08:58:13;8.03;;;4.27;;
10481;SDS011;5288;42.334;23.876;2022-09-09T09:00:45;7.33;;;4.13;;
10481;SDS011;5288;42.334;23.876;2022-09-09T09:03:25;6.90;;;4.30;;
10481;SDS011;5288;42.334;23.876;2022-09-09T09:06:01;4.23;;;3.83;;
10481;SDS011;5288;42.334;23.876;2022-09-09T09:08:35;7.13;;;3.87;;
10481;SDS011;5288;42.334;23.876;2022-09-09T09:11:10;7.93;;;3.97;;
10481;SDS011;5288;42.334;23.876;2022-09-09T09:13:38;11.40;;;4.83;;
10481;SDS011;5288;42.334;23.876;2022-09-09T09:16:13;6.43;;;4.40;;
10481;SDS011;5288;42.334;23.876;2022-09-09T09:18:48;4.70;;;4.20;;
10481;SDS011;5288;42.334;23.876;2022-09-09T09:21:17;5.00;;;3.93;;
10481;SDS011;5288;42.334;23.876;2022-09-09T09:23:55;7.03;;;3.80;;
10481;SDS011;5288;42.334;23.876;2022-09-09T09:26:23;4.43;;;3.53;;
10481;SDS011;5288;42.334;23.876;2022-09-09T09:28:55;4.13;;;3.37;;
10481;SDS011;5288;42.334;23.876;2022-09-09T09:31:25;4.50;;;3.10;;
10481;SDS011;5288;42.334;23.876;2022-09-09T09:33:55;4.80;;;3.50;;
10481;SDS011;5288;42.334;23.876;2022-09-09T09:36:24;5.47;;;3.30;;
10481;SDS011;5288;42.334;23.876;2022-09-09T09:39:01;7.23;;;3.97;;
10481;SDS011;5288;42.334;23.876;2022-09-09T09:41:31;5.47;;;3.70;;
10481;SDS011;5288;42.334;23.876;2022-09-09T09:44:00;8.83;;;4.00;;
10481;SDS011;5288;42.334;23.876;2022-09-09T09:46:29;4.20;;;3.80;;
10481;SDS011;5288;42.334;23.876;2022-09-09T09:48:59;5.43;;;3.40;;
10481;SDS011;5288;42.334;23.876;2022-09-09T09:51:28;6.53;;;3.73;;
10481;SDS011;5288;42.334;23.876;2022-09-09T09:54:08;5.03;;;3.60;;
10481;SDS011;5288;42.334;23.876;2022-09-09T09:56:45;3.83;;;3.40;;
10481;SDS011;5288;42.334;23.876;2022-09-09T09:59:32;5.17;;;3.73;;
10481;SDS011;5288;42.334;23.876;2022-09-09T10:02:17;5.43;;;3.83;;
10481;SDS011;5288;42.334;23.876;2022-09-09T10:04:59;5.03;;;3.80;;
10481;SDS011;5288;42.334;23.876;2022-09-09T10:07:27;3.90;;;3.50;;
10481;SDS011;5288;42.334;23.876;2022-09-09T10:09:55;5.03;;;4.00;;
10481;SDS011;5288;42.334;23.876;2022-09-09T10:12:30;5.77;;;4.07;;
10481;SDS011;5288;42.334;23.876;2022-09-09T10:15:15;3.60;;;3.30;;
10481;SDS011;5288;42.334;23.876;2022-09-09T10:17:54;6.27;;;3.40;;
10481;SDS011;5288;42.334;23.876;2022-09-09T10:20:31;3.97;;;3.33;;
10481;SDS011;5288;42.334;23.876;2022-09-09T10:23:08;3.50;;;3.20;;
10481;SDS011;5288;42.334;23.876;2022-09-09T10:25:52;4.87;;;3.43;;
10481;SDS011;5288;42.334;23.876;2022-09-09T10:28:33;4.63;;;3.90;;
10481;SDS011;5288;42.334;23.876;2022-09-09T10:31:16;5.17;;;3.50;;
10481;SDS011;5288;42.334;23.876;2022-09-09T10:33:49;5.30;;;3.77;;
10481;SDS011;5288;42.334;23.876;2022-09-09T10:36:20;7.50;;;3.50;;
10481;SDS011;5288;42.334;23.876;2022-09-09T10:38:52;7.30;;;3.47;;
10481;SDS011;5288;42.334;23.876;2022-09-09T10:41:31;6.27;;;3.50;;
10481;SDS011;5288;42.334;23.876;2022-09-09T10:44:18;4.00;;;3.60;;
10481;SDS011;5288;42.334;23.876;2022-09-09T10:47:00;4.50;;;4.10;;
10481;SDS011;5288;42.334;23.876;2022-09-09T10:49:49;4.67;;;3.83;;
10481;SDS011;5288;42.334;23.876;2022-09-09T10:52:36;7.23;;;3.63;;
10481;SDS011;5288;42.334;23.876;2022-09-09T10:55:13;4.47;;;4.07;;
10481;SDS011;5288;42.334;23.876;2022-09-09T10:57:45;5.73;;;4.20;;
10481;SDS011;5288;42.334;23.876;2022-09-09T11:00:15;5.77;;;3.97;;
10481;SDS011;5288;42.334;23.876;2022-09-09T11:02:45;7.13;;;3.83;;
10481;SDS011;5288;42.334;23.876;2022-09-09T11:05:20;6.43;;;4.15;;
10481;SDS011;5288;42.334;23.876;2022-09-09T11:07:54;5.93;;;3.90;;
10481;SDS011;5288;42.334;23.876;2022-09-09T11:10:25;6.32;;;3.78;;
10481;SDS011;5288;42.334;23.876;2022-09-09T11:12:59;3.83;;;3.50;;
10481;SDS011;5288;42.334;23.876;2022-09-09T11:15:38;5.13;;;3.80;;
10481;SDS011;5288;42.334;23.876;2022-09-09T11:18:10;4.55;;;3.88;;
10481;SDS011;5288;42.334;23.876;2022-09-09T11:20:40;5.97;;;3.92;;
10481;SDS011;5288;42.334;23.876;2022-09-09T11:23:11;4.07;;;3.67;;
10481;SDS011;5288;42.334;23.876;2022-09-09T11:25:42;7.13;;;3.63;;
10481;SDS011;5288;42.334;23.876;2022-09-09T11:28:21;4.95;;;3.70;;
10481;SDS011;5288;42.334;23.876;2022-09-09T11:31:05;6.18;;;4.25;;
10481;SDS011;5288;42.334;23.876;2022-09-09T11:34:02;4.00;;;3.60;;
10481;SDS011;5288;42.334;23.876;2022-09-09T11:36:54;5.55;;;4.07;;
10481;SDS011;5288;42.334;23.876;2022-09-09T11:39:41;10.65;;;4.30;;
10481;SDS011;5288;42.334;23.876;2022-09-09T11:42:20;4.90;;;4.40;;
10481;SDS011;5288;42.334;23.876;2022-09-09T11:44:49;9.32;;;4.43;;
10481;SDS011;5288;42.334;23.876;2022-09-09T11:47:19;10.07;;;4.53;;
10481;SDS011;5288;42.334;23.876;2022-09-09T11:49:51;5.82;;;4.60;;
10481;SDS011;5288;42.334;23.876;2022-09-09T11:52:22;11.67;;;4.60;;
10481;SDS011;5288;42.334;23.876;2022-09-09T11:54:55;5.83;;;4.17;;
10481;SDS011;5288;42.334;23.876;2022-09-09T11:57:25;6.30;;;4.07;;
10481;SDS011;5288;42.334;23.876;2022-09-09T11:59:57;4.90;;;4.40;;
10481;SDS011;5288;42.334;23.876;2022-09-09T12:02:25;4.40;;;4.00;;
10481;SDS011;5288;42.334;23.876;2022-09-09T12:04:57;6.90;;;4.57;;
10481;SDS011;5288;42.334;23.876;2022-09-09T12:07:34;9.30;;;4.93;;
10481;SDS011;5288;42.334;23.876;2022-09-09T12:10:18;7.90;;;4.97;;
10481;SDS011;5288;42.334;23.876;2022-09-09T12:12:50;4.47;;;4.07;;
10481;SDS011;5288;42.334;23.876;2022-09-09T12:15:25;7.53;;;4.13;;
10481;SDS011;5288;42.334;23.876;2022-09-09T12:17:58;8.70;;;4.40;;
10481;SDS011;5288;42.334;23.876;2022-09-09T12:20:31;7.73;;;4.30;;
10481;SDS011;5288;42.334;23.876;2022-09-09T12:26:03;4.63;;;4.23;;
10481;SDS011;5288;42.334;23.876;2022-09-09T12:28:53;5.33;;;4.83;;
10481;SDS011;5288;42.334;23.876;2022-09-09T12:31:27;8.00;;;4.10;;
10481;SDS011;5288;42.334;23.876;2022-09-09T12:34:09;4.57;;;4.10;;
10481;SDS011;5288;42.334;23.876;2022-09-09T12:36:38;5.50;;;3.90;;
10481;SDS011;5288;42.334;23.876;2022-09-09T12:39:16;4.47;;;3.77;;
10481;SDS011;5288;42.334;23.876;2022-09-09T12:41:52;6.53;;;4.77;;
10481;SDS011;5288;42.334;23.876;2022-09-09T12:44:23;10.87;;;4.13;;
10481;SDS011;5288;42.334;23.876;2022-09-09T12:46:51;5.27;;;4.50;;
10481;SDS011;5288;42.334;23.876;2022-09-09T12:49:29;4.22;;;3.85;;
10481;SDS011;5288;42.334;23.876;2022-09-09T12:52:01;15.80;;;5.33;;
10481;SDS011;5288;42.334;23.876;2022-09-09T12:54:31;4.30;;;3.90;;
10481;SDS011;5288;42.334;23.876;2022-09-09T12:57:00;4.70;;;4.17;;
10481;SDS011;5288;42.334;23.876;2022-09-09T12:59:35;5.73;;;4.13;;
10481;SDS011;5288;42.334;23.876;2022-09-09T13:02:11;4.57;;;4.17;;
10481;SDS011;5288;42.334;23.876;2022-09-09T13:04:44;5.03;;;3.80;;
10481;SDS011;5288;42.334;23.876;2022-09-09T13:20:01;6.95;;;4.65;;
10481;SDS011;5288;42.334;23.876;2022-09-09T13:22:33;6.90;;;4.60;;
10481;SDS011;5288;42.334;23.876;2022-09-09T13:25:21;5.50;;;4.80;;
10481;SDS011;5288;42.334;23.876;2022-09-09T13:27:52;5.13;;;4.63;;
10481;SDS011;5288;42.334;23.876;2022-09-09T13:30:25;4.97;;;4.57;;
10481;SDS011;5288;42.334;23.876;2022-09-09T13:33:01;7.00;;;4.67;;
10481;SDS011;5288;42.334;23.876;2022-09-09T13:35:48;5.47;;;4.73;;
10481;SDS011;5288;42.334;23.876;2022-09-09T13:38:17;7.93;;;5.03;;
10481;SDS011;5288;42.334;23.876;2022-09-09T13:40:54;7.03;;;4.60;;
10481;SDS011;5288;42.334;23.876;2022-09-09T13:43:26;9.07;;;5.17;;
10481;SDS011;5288;42.334;23.876;2022-09-09T13:45:55;6.23;;;4.60;;
10481;SDS011;5288;42.334;23.876;2022-09-09T13:48:23;5.37;;;4.40;;
10481;SDS011;5288;42.334;23.876;2022-09-09T13:51:00;8.63;;;4.57;;
10481;SDS011;5288;42.334;23.876;2022-09-09T13:53:30;4.53;;;4.13;;
10481;SDS011;5288;42.334;23.876;2022-09-09T13:55:58;13.67;;;5.00;;
10481;SDS011;5288;42.334;23.876;2022-09-09T13:58:26;5.23;;;4.53;;
10481;SDS011;5288;42.334;23.876;2022-09-09T14:00:53;10.17;;;5.50;;
10481;SDS011;5288;42.334;23.876;2022-09-09T14:03:20;8.13;;;4.67;;
10481;SDS011;5288;42.334;23.876;2022-09-09T14:05:47;5.67;;;4.90;;
10481;SDS011;5288;42.334;23.876;2022-09-09T14:08:19;6.17;;;5.10;;
10481;SDS011;5288;42.334;23.876;2022-09-09T14:10:50;10.90;;;5.10;;
10481;SDS011;5288;42.334;23.876;2022-09-09T14:13:17;11.07;;;4.57;;
10481;SDS011;5288;42.334;23.876;2022-09-09T14:15:47;6.23;;;4.70;;
10481;SDS011;5288;42.334;23.876;2022-09-09T14:18:16;11.20;;;5.33;;
10481;SDS011;5288;42.334;23.876;2022-09-09T14:20:43;11.80;;;5.40;;
10481;SDS011;5288;42.334;23.876;2022-09-09T14:23:11;7.70;;;4.13;;
10481;SDS011;5288;42.334;23.876;2022-09-09T14:25:41;6.23;;;4.97;;
10481;SDS011;5288;42.334;23.876;2022-09-09T14:28:09;9.97;;;5.17;;
10481;SDS011;5288;42.334;23.876;2022-09-09T14:30:38;9.10;;;8.13;;
10481;SDS011;5288;42.334;23.876;2022-09-09T14:33:06;7.37;;;5.50;;
10481;SDS011;5288;42.334;23.876;2022-09-09T14:35:34;6.93;;;5.30;;
10481;SDS011;5288;42.334;23.876;2022-09-09T14:38:01;7.57;;;4.80;;
10481;SDS011;5288;42.334;23.876;2022-09-09T14:40:29;9.07;;;4.70;;
10481;SDS011;5288;42.334;23.876;2022-09-09T14:42:58;5.20;;;4.70;;
10481;SDS011;5288;42.334;23.876;2022-09-09T14:45:25;10.73;;;7.87;;
10481;SDS011;5288;42.334;23.876;2022-09-09T14:47:52;6.13;;;4.63;;
10481;SDS011;5288;42.334;23.876;2022-09-09T14:50:19;8.27;;;5.60;;
10481;SDS011;5288;42.334;23.876;2022-09-09T14:52:48;7.90;;;4.53;;
10481;SDS011;5288;42.334;23.876;2022-09-09T14:55:15;5.93;;;4.87;;
10481;SDS011;5288;42.334;23.876;2022-09-09T14:57:42;6.57;;;4.80;;
10481;SDS011;5288;42.334;23.876;2022-09-09T15:00:12;6.03;;;5.00;;
10481;SDS011;5288;42.334;23.876;2022-09-09T15:02:39;4.87;;;4.30;;
10481;SDS011;5288;42.334;23.876;2022-09-09T15:05:06;8.90;;;5.07;;
10481;SDS011;5288;42.334;23.876;2022-09-09T15:07:34;6.63;;;5.00;;
10481;SDS011;5288;42.334;23.876;2022-09-09T15:10:02;9.40;;;5.77;;
10481;SDS011;5288;42.334;23.876;2022-09-09T15:12:30;7.40;;;5.87;;
10481;SDS011;5288;42.334;23.876;2022-09-09T15:14:59;8.17;;;6.37;;
10481;SDS011;5288;42.334;23.876;2022-09-09T15:17:27;8.07;;;6.57;;
10481;SDS011;5288;42.334;23.876;2022-09-09T15:19:54;4.97;;;4.50;;